Terminal Aerodrome Forecast
Issued by NWS Shreveport, LA

Home | Current Version | Previous Version | Text Only | Print | Product List | Glossary On
Versions: 1 2 3 4 5 6 7 8 9 10 11 12 13
931
FTUS44 KSHV 261741
TAFELD
TAF
KELD 261741Z 2618/2718 16010G20KT P6SM VCSH OVC015
     FM261900 18016G26KT P6SM VCTS OVC030CB
      TEMPO 2620/2622 VRB20G40KT 1SM +TSRA BR OVC015CB
     FM270300 26012KT P6SM OVC015
     FM270600 30005KT P6SM SKC=

USA.gov is the U.S. government's official web portal to all federal, state and local government web resources and services.